Time;durP1;ratioP1;P1;durP2;ratioP2;P2;SDS_P1;SDS_P2;PMS_P1;PMS_P2;Temp;Humidity;BMP_temperature;BMP_pressure;BME280_temperature;BME280_humidity;BME280_pressure;Samples;Min_cycle;Max_cycle;Signal;HPM_P1;HPM_P2
2022/10/23 00:00:07;;;;;;;0.10;0.10;;;;;;;9.95;100.00;101525.00;10512123;28;20436;-79
2022/10/23 00:05:08;;;;;;;0.10;0.10;;;;;;;9.91;100.00;101521.75;10511935;28;20054;-79
2022/10/23 00:10:09;;;;;;;0.10;0.10;;;;;;;9.84;100.00;101517.97;10493616;28;20024;-78
2022/10/23 00:15:10;;;;;;;0.00;0.00;;;;;;;9.81;100.00;101520.91;10502796;28;20024;-79
2022/10/23 00:20:11;;;;;;;0.00;0.00;;;;;;;9.75;100.00;101526.78;10510690;28;20129;-79
2022/10/23 00:25:12;;;;;;;0.00;0.00;;;;;;;9.65;100.00;101521.41;10506947;28;20157;-79
2022/10/23 00:30:13;;;;;;;0.10;0.10;;;;;;;9.63;100.00;101519.84;10506550;28;20589;-79
2022/10/23 00:35:13;;;;;;;0.10;0.10;;;;;;;9.61;100.00;101521.84;10509884;28;20047;-78
2022/10/23 00:40:13;;;;;;;0.10;0.10;;;;;;;9.66;100.00;101536.41;10510229;28;20203;-79
2022/10/23 00:45:26;;;;;;;0.03;0.03;;;;;;;9.69;100.00;101532.63;10509531;28;20344;-79
2022/10/23 00:50:29;;;;;;;0.05;0.05;;;;;;;9.66;100.00;101538.25;10509847;28;20025;-79
2022/10/23 00:55:32;;;;;;;0.03;0.03;;;;;;;9.60;100.00;101526.31;10508223;28;20020;-78
2022/10/23 01:00:45;;;;;;;0.10;0.10;;;;;;;9.56;100.00;101524.88;10506999;28;20040;-79
2022/10/23 01:05:46;;;;;;;0.10;0.10;;;;;;;9.49;100.00;101529.91;10506218;28;20103;-77
2022/10/23 01:10:54;;;;;;;0.10;0.10;;;;;;;9.45;100.00;101515.22;10509416;28;20059;-78
2022/10/23 01:16:07;;;;;;;0.00;0.00;;;;;;;9.42;100.00;101511.97;10493789;28;20032;-79
2022/10/23 01:21:59;;;;;;;0.10;0.10;;;;;;;9.38;100.00;101511.41;10506226;28;20021;-79
2022/10/23 01:27:17;;;;;;;0.00;0.00;;;;;;;9.35;100.00;101508.19;10506975;28;20096;-78
2022/10/23 01:32:29;;;;;;;0.10;0.10;;;;;;;9.32;100.00;101506.63;10504162;28;20020;-77
2022/10/23 01:37:45;;;;;;;0.00;0.00;;;;;;;9.32;100.00;101511.09;10508238;28;20051;-79
2022/10/23 01:42:51;;;;;;;0.10;0.10;;;;;;;9.29;100.00;101514.88;10506413;28;20095;-78
2022/10/23 01:47:54;;;;;;;0.10;0.10;;;;;;;9.24;100.00;101519.72;10507802;28;20553;-79
2022/10/23 01:52:55;;;;;;;0.10;0.10;;;;;;;9.21;100.00;101518.19;10503056;28;20387;-79
2022/10/23 01:57:56;;;;;;;0.10;0.10;;;;;;;9.24;100.00;101511.75;10506795;28;20113;-79
2022/10/23 02:02:57;;;;;;;0.00;0.00;;;;;;;9.23;100.00;101508.25;10506022;28;20475;-79
2022/10/23 02:08:00;;;;;;;0.10;0.10;;;;;;;9.23;100.00;101489.66;10505467;28;20028;-79
2022/10/23 02:13:07;;;;;;;0.10;0.10;;;;;;;9.27;100.00;101496.38;10505812;28;20031;-79
2022/10/23 02:18:31;;;;;;;0.10;0.10;;;;;;;9.26;100.00;101483.22;10504824;28;20051;-79
2022/10/23 02:23:36;;;;;;;0.10;0.10;;;;;;;9.23;100.00;101483.50;10463090;28;20013;-79
2022/10/23 02:28:48;;;;;;;0.00;0.00;;;;;;;9.24;100.00;101490.50;10502547;28;20025;-79
2022/10/23 02:33:49;;;;;;;0.00;0.00;;;;;;;9.24;100.00;101509.09;10519015;28;20024;-79
2022/10/23 02:38:49;;;;;;;0.03;0.03;;;;;;;9.25;100.00;101495.69;10493562;28;20055;-78
2022/10/23 02:44:11;;;;;;;0.10;0.10;;;;;;;9.33;100.00;101488.84;10497786;28;20251;-79
2022/10/23 02:49:34;;;;;;;0.00;0.00;;;;;;;9.40;100.00;101488.19;10493495;28;20029;-78
2022/10/23 02:55:25;;;;;;;0.00;0.00;;;;;;;9.45;100.00;101498.41;10503433;28;20153;-77
2022/10/23 03:00:29;;;;;;;0.10;0.10;;;;;;;9.45;100.00;101491.28;10477221;28;20073;-78
2022/10/23 03:05:39;;;;;;;0.10;0.10;;;;;;;9.47;100.00;101486.66;10502659;28;20016;-78
2022/10/23 03:10:40;;;;;;;0.10;0.10;;;;;;;9.49;100.00;101484.72;10503463;28;20013;-79
2022/10/23 03:15:41;;;;;;;0.10;0.10;;;;;;;9.46;100.00;101484.97;10502861;28;20118;-79
2022/10/23 03:20:41;;;;;;;0.00;0.00;;;;;;;9.43;100.00;101490.56;10503716;28;20504;-78
2022/10/23 03:25:41;;;;;;;0.10;0.10;;;;;;;9.36;100.00;101486.75;10502515;28;20052;-78
2022/10/23 03:30:41;;;;;;;0.00;0.00;;;;;;;9.32;100.00;101487.19;10486478;28;20021;-78
2022/10/23 03:35:42;;;;;;;0.10;0.10;;;;;;;9.25;100.00;101476.22;10460933;28;20024;-78
2022/10/23 03:40:42;;;;;;;0.10;0.10;;;;;;;9.16;100.00;101479.69;10499619;28;20016;-78
2022/10/23 03:45:42;;;;;;;0.00;0.00;;;;;;;9.10;100.00;101483.72;10501614;28;20016;-78
2022/10/23 03:50:43;;;;;;;0.00;0.00;;;;;;;9.06;100.00;101475.19;10501969;28;20025;-78
2022/10/23 03:55:44;;;;;;;0.10;0.10;;;;;;;9.07;100.00;101483.97;10502328;28;20032;-78
2022/10/23 04:00:44;;;;;;;0.10;0.10;;;;;;;9.04;100.00;101476.28;10493115;28;20055;-78
2022/10/23 04:05:45;;;;;;;0.10;0.10;;;;;;;9.04;100.00;101481.59;10475619;28;20163;-78
2022/10/23 04:10:45;;;;;;;0.10;0.10;;;;;;;9.06;100.00;101480.50;10465708;28;20021;-78
2022/10/23 04:15:52;;;;;;;0.00;0.00;;;;;;;9.02;100.00;101471.13;10465023;28;20078;-78
2022/10/23 04:20:53;;;;;;;0.08;0.08;;;;;;;8.91;100.00;101471.19;10470848;28;20080;-77
2022/10/23 04:25:56;;;;;;;0.10;0.10;;;;;;;8.82;100.00;101461.38;10503762;28;20470;-77
2022/10/23 04:30:57;;;;;;;0.10;0.10;;;;;;;8.74;100.00;101456.72;10501776;28;20063;-78
2022/10/23 04:35:57;;;;;;;0.00;0.00;;;;;;;8.64;100.00;101441.69;10502055;28;20036;-77
2022/10/23 04:40:57;;;;;;;0.00;0.00;;;;;;;8.59;100.00;101448.25;10481511;28;20139;-77
2022/10/23 04:45:59;;;;;;;0.00;0.00;;;;;;;8.54;100.00;101442.47;10485835;28;20025;-78
2022/10/23 04:51:02;;;;;;;0.00;0.00;;;;;;;8.53;100.00;101451.41;10502432;28;20554;-77
2022/10/23 04:56:02;;;;;;;0.10;0.10;;;;;;;8.53;100.00;101446.13;10487286;28;20024;-77
2022/10/23 05:01:02;;;;;;;0.10;0.10;;;;;;;8.56;100.00;101434.41;10494691;28;20476;-77
2022/10/23 05:06:03;;;;;;;0.10;0.10;;;;;;;8.57;100.00;101444.03;10465062;28;20033;-77
2022/10/23 05:11:04;;;;;;;0.00;0.00;;;;;;;8.56;100.00;101445.84;10477528;28;20496;-77
2022/10/23 05:16:04;;;;;;;0.08;0.08;;;;;;;8.53;100.00;101450.59;10496253;28;20540;-77
2022/10/23 05:21:17;;;;;;;0.00;0.00;;;;;;;8.52;100.00;101438.25;10499448;28;20052;-77
2022/10/23 05:26:18;;;;;;;0.10;0.10;;;;;;;8.54;100.00;101437.16;10498013;28;20031;-78
2022/10/23 05:31:20;;;;;;;0.10;0.10;;;;;;;8.55;100.00;101438.00;10496736;28;20479;-77
2022/10/23 05:36:22;;;;;;;0.10;0.10;;;;;;;8.55;100.00;101428.25;10479429;28;20103;-78
2022/10/23 05:41:23;;;;;;;0.00;0.00;;;;;;;8.57;100.00;101428.94;10495787;28;20107;-77
2022/10/23 05:46:23;;;;;;;0.10;0.10;;;;;;;8.59;100.00;101434.97;10483463;28;20055;-78
2022/10/23 05:51:23;;;;;;;0.00;0.00;;;;;;;8.59;100.00;101431.47;10459029;28;20017;-78
2022/10/23 05:56:23;;;;;;;0.00;0.00;;;;;;;8.54;100.00;101425.72;10497284;28;20031;-78
2022/10/23 06:01:24;;;;;;;0.00;0.00;;;;;;;8.54;100.00;101436.31;10476369;22;20068;-74
2022/10/23 06:06:24;;;;;;;0.00;0.00;;;;;;;8.53;100.00;101432.84;10398048;28;20024;-75
2022/10/23 06:11:24;;;;;;;0.03;0.03;;;;;;;8.56;100.00;101434.41;10390021;28;20042;-74
2022/10/23 06:16:25;;;;;;;0.10;0.10;;;;;;;8.65;100.00;101436.25;10380368;28;20030;-74
2022/10/23 06:21:26;;;;;;;0.00;0.00;;;;;;;8.70;100.00;101435.88;10398389;28;20427;-75
2022/10/23 06:26:26;;;;;;;0.00;0.00;;;;;;;8.75;100.00;101444.25;10393176;28;20025;-75
2022/10/23 06:31:27;;;;;;;0.10;0.10;;;;;;;8.90;100.00;101435.00;10409973;28;20029;-75
2022/10/23 06:36:27;;;;;;;0.00;0.00;;;;;;;8.79;100.00;101435.06;10397871;28;20028;-74
2022/10/23 06:41:27;;;;;;;0.00;0.00;;;;;;;8.74;100.00;101431.97;10388509;28;20010;-75
2022/10/23 06:46:31;;;;;;;0.00;0.00;;;;;;;8.92;100.00;101429.53;10385247;28;20256;-75
2022/10/23 06:51:31;;;;;;;0.10;0.10;;;;;;;9.19;100.00;101426.25;10393743;28;20135;-75
2022/10/23 06:56:33;;;;;;;0.10;0.10;;;;;;;9.34;100.00;101419.59;10402116;28;20112;-75
2022/10/23 07:01:34;;;;;;;0.10;0.10;;;;;;;9.48;100.00;101416.56;10385540;28;20031;-74
2022/10/23 07:06:34;;;;;;;0.10;0.10;;;;;;;9.68;100.00;101421.88;10388399;28;20374;-75
2022/10/23 07:11:35;;;;;;;0.00;0.00;;;;;;;9.94;100.00;101433.66;10399160;28;20069;-75
2022/10/23 07:16:36;;;;;;;0.10;0.10;;;;;;;10.30;100.00;101433.13;10388761;28;20022;-75
2022/10/23 07:21:36;;;;;;;0.00;0.00;;;;;;;10.41;100.00;101440.91;10398967;28;20090;-75
2022/10/23 07:26:36;;;;;;;0.10;0.10;;;;;;;10.48;100.00;101443.88;10381356;28;20540;-75
2022/10/23 07:31:37;;;;;;;0.10;0.10;;;;;;;11.16;100.00;101438.28;10403080;28;20109;-75
2022/10/23 07:36:37;;;;;;;0.10;0.10;;;;;;;12.00;100.00;101449.56;10404693;28;20025;-75
2022/10/23 07:41:37;;;;;;;0.10;0.10;;;;;;;12.82;100.00;101442.13;10387108;28;20752;-75
2022/10/23 07:46:37;;;;;;;0.10;0.10;;;;;;;13.47;100.00;101446.13;10401386;28;20022;-75
2022/10/23 07:51:38;;;;;;;0.10;0.10;;;;;;;13.45;100.00;101440.94;10402579;28;20017;-76
2022/10/23 07:56:38;;;;;;;0.10;0.10;;;;;;;13.41;100.00;101436.91;10395029;28;20029;-75
2022/10/23 08:01:41;;;;;;;0.10;0.10;;;;;;;13.36;100.00;101436.56;10379886;28;20120;-76
2022/10/23 08:06:41;;;;;;;0.00;0.00;;;;;;;13.50;100.00;101440.44;10381205;28;20021;-76
2022/10/23 08:11:42;;;;;;;0.00;0.00;;;;;;;13.79;100.00;101423.94;10398818;28;20022;-77
2022/10/23 08:16:42;;;;;;;0.10;0.10;;;;;;;13.73;100.00;101420.09;10400418;28;20032;-77
2022/10/23 08:21:42;;;;;;;0.10;0.10;;;;;;;13.58;100.00;101427.06;10383150;28;20383;-77
2022/10/23 08:26:43;;;;;;;0.00;0.00;;;;;;;13.49;100.00;101415.50;10409126;28;20044;-76
2022/10/23 08:31:43;;;;;;;0.00;0.00;;;;;;;13.43;100.00;101418.00;10403660;28;20025;-79
2022/10/23 08:36:43;;;;;;;0.10;0.10;;;;;;;13.40;100.00;101410.31;10417192;28;20026;-78
2022/10/23 08:41:50;;;;;;;0.00;0.00;;;;;;;13.46;100.00;101407.81;10394411;28;20108;-78
2022/10/23 08:47:09;;;;;;;0.10;0.10;;;;;;;13.57;100.00;101403.97;10416031;28;20026;-78
2022/10/23 08:52:20;;;;;;;0.10;0.10;;;;;;;13.61;100.00;101399.13;10395801;28;20501;-79
2022/10/23 08:57:22;;;;;;;0.10;0.10;;;;;;;13.56;100.00;101396.97;10399390;28;20037;-78
2022/10/23 09:02:39;;;;;;;0.00;0.00;;;;;;;13.52;100.00;101401.78;10408381;28;20018;-78
2022/10/23 09:08:03;;;;;;;0.10;0.10;;;;;;;13.59;100.00;101391.28;10389265;28;20034;-78
2022/10/23 09:13:50;;;;;;;0.00;0.00;;;;;;;13.66;100.00;101400.31;10410813;28;20071;-78
2022/10/23 09:18:52;;;;;;;0.10;0.10;;;;;;;13.69;100.00;101389.28;10366574;28;20047;-79
2022/10/23 09:23:52;;;;;;;0.10;0.10;;;;;;;13.87;100.00;101382.94;10394052;28;20027;-78
2022/10/23 09:29:04;;;;;;;0.10;0.10;;;;;;;14.02;100.00;101390.13;10402873;28;20444;-77
2022/10/23 09:34:05;;;;;;;0.10;0.10;;;;;;;14.14;100.00;101387.13;10403248;28;20366;-77
2022/10/23 09:39:27;;;;;;;0.10;0.10;;;;;;;14.26;100.00;101391.94;10408148;28;20018;-76
2022/10/23 09:44:31;;;;;;;0.10;0.10;;;;;;;14.31;100.00;101385.25;10399180;28;20017;-78
2022/10/23 09:49:33;;;;;;;0.10;0.10;;;;;;;14.41;100.00;101392.09;10395414;28;20381;-78
2022/10/23 09:54:43;;;;;;;0.10;0.10;;;;;;;14.56;100.00;101389.56;10404023;28;20384;-78
2022/10/23 09:59:43;;;;;;;0.10;0.10;;;;;;;14.66;100.00;101384.88;10406922;28;20095;-78
2022/10/23 10:04:43;;;;;;;0.00;0.00;;;;;;;14.77;100.00;101380.13;10418455;28;20096;-78
2022/10/23 10:09:44;;;;;;;0.00;0.00;;;;;;;14.93;100.00;101372.84;10401427;28;20377;-78
2022/10/23 10:15:00;;;;;;;0.00;0.00;;;;;;;15.02;100.00;101367.47;10401719;28;20033;-78
2022/10/23 10:20:12;;;;;;;0.00;0.00;;;;;;;14.99;100.00;101355.22;10393716;28;20498;-78
2022/10/23 10:25:37;;;;;;;0.10;0.10;;;;;;;15.09;100.00;101333.53;10389177;28;20025;-78
2022/10/23 10:30:45;;;;;;;0.10;0.10;;;;;;;15.21;100.00;101340.16;10389696;28;20053;-77
2022/10/23 10:36:08;;;;;;;0.10;0.10;;;;;;;15.28;100.00;101313.47;10415459;28;20021;-78
2022/10/23 10:41:28;;;;;;;0.00;0.00;;;;;;;15.32;100.00;101317.47;10398832;28;20046;-75
2022/10/23 10:46:43;;;;;;;0.10;0.10;;;;;;;15.41;100.00;101311.03;10390985;28;20108;-77
2022/10/23 10:52:35;;;;;;;0.10;0.10;;;;;;;15.51;100.00;101316.16;10392242;28;20376;-78
2022/10/23 10:57:40;;;;;;;0.03;0.03;;;;;;;15.48;100.00;101312.00;10358626;28;20038;-78
2022/10/23 11:02:46;;;;;;;0.10;0.10;;;;;;;15.54;100.00;101318.50;10402376;28;20037;-77
2022/10/23 11:08:26;;;;;;;0.10;0.10;;;;;;;15.66;100.00;101308.16;10402474;28;20036;-78
2022/10/23 11:13:30;;;;;;;0.10;0.10;;;;;;;15.73;100.00;101307.28;10371015;28;20030;-78
2022/10/23 11:18:32;;;;;;;0.10;0.10;;;;;;;15.72;100.00;101291.34;10396324;28;20083;-77
2022/10/23 11:23:54;;;;;;;0.10;0.10;;;;;;;15.73;100.00;101291.16;10403965;28;20024;-77
2022/10/23 11:29:17;;;;;;;0.00;0.00;;;;;;;15.85;100.00;101275.44;10397738;28;20057;-77
2022/10/23 11:34:51;;;;;;;0.10;0.10;;;;;;;15.97;100.00;101259.69;10373255;28;20436;-78
2022/10/23 11:40:07;;;;;;;0.00;0.00;;;;;;;16.15;100.00;101254.00;10403148;28;20030;-77
2022/10/23 11:45:28;;;;;;;0.10;0.10;;;;;;;16.28;100.00;101241.53;10375926;28;20075;-78
2022/10/23 11:50:48;;;;;;;0.10;0.10;;;;;;;16.40;100.00;101225.78;10382198;28;20021;-78
2022/10/23 11:56:15;;;;;;;0.00;0.00;;;;;;;16.34;100.00;101201.50;10385999;28;20022;-78
2022/10/23 12:01:41;;;;;;;0.10;0.10;;;;;;;16.33;100.00;101194.47;10410023;22;20534;-76
2022/10/23 12:06:47;;;;;;;0.00;0.00;;;;;;;16.40;100.00;101184.63;10373462;28;20480;-75
2022/10/23 12:11:50;;;;;;;0.10;0.10;;;;;;;16.45;100.00;101185.72;10396277;28;20041;-75
2022/10/23 12:16:50;;;;;;;0.10;0.10;;;;;;;16.48;100.00;101177.28;10397585;28;20056;-76
2022/10/23 12:21:56;;;;;;;0.00;0.00;;;;;;;16.49;100.00;101173.59;10387071;28;20065;-75
2022/10/23 12:27:01;;;;;;;0.00;0.00;;;;;;;16.50;100.00;101159.09;10390588;28;20148;-75
2022/10/23 12:32:16;;;;;;;0.10;0.10;;;;;;;16.51;100.00;101147.31;10389083;28;20029;-76
2022/10/23 12:37:44;;;;;;;0.00;0.00;;;;;;;16.53;100.00;101141.75;10399709;28;20108;-75
2022/10/23 12:42:52;;;;;;;0.10;0.10;;;;;;;16.49;100.00;101132.38;10399556;28;20515;-75
2022/10/23 12:47:53;;;;;;;0.00;0.00;;;;;;;16.48;100.00;101118.13;10397769;28;20022;-75
2022/10/23 12:53:02;;;;;;;0.00;0.00;;;;;;;16.51;100.00;101124.97;10390116;28;20329;-75
2022/10/23 12:58:02;;;;;;;0.00;0.00;;;;;;;16.51;100.00;101111.53;10389634;28;20022;-75
2022/10/23 13:03:03;;;;;;;0.00;0.00;;;;;;;16.42;100.00;101091.16;10380536;28;20030;-75
2022/10/23 13:08:04;;;;;;;0.00;0.00;;;;;;;16.39;100.00;101070.06;10391697;28;20037;-74
2022/10/23 13:13:06;;;;;;;0.03;0.03;;;;;;;16.35;100.00;101058.00;10376784;28;20497;-76
2022/10/23 13:18:13;;;;;;;0.10;0.10;;;;;;;16.27;100.00;101051.72;10380840;28;20109;-75
2022/10/23 13:23:24;;;;;;;0.10;0.10;;;;;;;16.16;100.00;101046.84;10371150;28;20380;-73
2022/10/23 13:28:32;;;;;;;0.10;0.10;;;;;;;16.08;100.00;101022.78;10381617;28;20017;-75
2022/10/23 13:33:36;;;;;;;0.10;0.10;;;;;;;16.04;100.00;101024.19;10385829;28;20091;-75
2022/10/23 13:38:39;;;;;;;0.10;0.10;;;;;;;16.03;100.00;101006.44;10407615;28;20014;-75
2022/10/23 13:43:40;;;;;;;0.00;0.00;;;;;;;15.98;100.00;101000.78;10389653;28;20468;-75
2022/10/23 13:48:41;;;;;;;0.10;0.10;;;;;;;16.00;100.00;100996.06;10395605;28;20021;-75
2022/10/23 13:53:41;;;;;;;0.10;0.10;;;;;;;15.99;100.00;101003.28;10410421;28;20018;-75
2022/10/23 13:58:41;;;;;;;0.10;0.10;;;;;;;15.99;100.00;100994.38;10385705;28;20044;-75
2022/10/23 14:03:42;;;;;;;0.10;0.10;;;;;;;15.97;100.00;100989.22;10369857;28;20340;-75
2022/10/23 14:08:42;;;;;;;0.10;0.10;;;;;;;15.93;100.00;100984.41;10395505;28;20018;-75
2022/10/23 14:13:43;;;;;;;0.10;0.10;;;;;;;15.90;100.00;100984.78;10368781;28;20117;-75
2022/10/23 14:18:43;;;;;;;0.10;0.10;;;;;;;15.82;100.00;100970.47;10383667;28;20028;-75
2022/10/23 14:23:44;;;;;;;0.00;0.00;;;;;;;15.73;100.00;100968.06;10389162;28;20016;-75
2022/10/23 14:28:44;;;;;;;0.10;0.10;;;;;;;15.65;100.00;100966.31;10369136;28;20751;-75
2022/10/23 14:33:45;;;;;;;0.00;0.00;;;;;;;15.61;100.00;100956.94;10368442;28;20420;-75
2022/10/23 14:38:45;;;;;;;0.00;0.00;;;;;;;15.56;100.00;100954.00;10382668;28;20028;-75
2022/10/23 14:43:46;;;;;;;0.10;0.10;;;;;;;15.52;100.00;100945.50;10368155;28;20029;-75
2022/10/23 14:48:46;;;;;;;0.10;0.10;;;;;;;15.49;100.00;100961.16;10369060;28;20327;-75
2022/10/23 14:53:47;;;;;;;0.10;0.10;;;;;;;15.45;100.00;100941.91;10370954;28;20022;-75
2022/10/23 14:58:48;;;;;;;0.00;0.00;;;;;;;15.41;100.00;100927.19;10374979;28;20264;-74
2022/10/23 15:03:53;;;;;;;0.00;0.00;;;;;;;15.32;100.00;100929.16;10381172;28;20018;-75
2022/10/23 15:08:54;;;;;;;0.10;0.10;;;;;;;15.29;100.00;100921.47;10395616;28;20026;-74
2022/10/23 15:13:55;;;;;;;0.05;0.05;;;;;;;15.23;100.00;100918.72;10366075;28;20018;-74
2022/10/23 15:18:55;;;;;;;0.03;0.03;;;;;;;15.18;100.00;100911.22;10391826;28;20595;-75
2022/10/23 15:23:55;;;;;;;0.10;0.10;;;;;;;15.12;100.00;100894.00;10388380;28;20025;-75
2022/10/23 15:28:59;;;;;;;0.00;0.00;;;;;;;15.07;100.00;100883.03;10376694;28;20037;-75
2022/10/23 15:33:59;;;;;;;0.00;0.00;;;;;;;14.99;100.00;100868.91;10372729;28;20028;-74
2022/10/23 15:39:00;;;;;;;0.00;0.00;;;;;;;14.92;100.00;100883.06;10367684;28;20489;-74
2022/10/23 15:44:01;;;;;;;0.10;0.10;;;;;;;14.86;100.00;100861.50;10392998;28;20021;-74
2022/10/23 15:49:02;;;;;;;0.10;0.10;;;;;;;14.76;100.00;100860.94;10387071;28;20067;-75
2022/10/23 15:54:08;;;;;;;0.10;0.10;;;;;;;14.67;100.00;100852.19;10398587;28;20061;-75
2022/10/23 15:59:08;;;;;;;0.10;0.10;;;;;;;14.61;100.00;100828.78;10389269;28;20492;-75
2022/10/23 16:04:09;;;;;;;0.10;0.10;;;;;;;14.54;100.00;100809.91;10395983;28;20017;-74
2022/10/23 16:09:09;;;;;;;0.00;0.00;;;;;;;14.49;100.00;100775.63;10404854;28;20383;-74
2022/10/23 16:14:14;;;;;;;0.10;0.10;;;;;;;14.43;100.00;100803.16;10406600;28;20045;-75
2022/10/23 16:19:15;;;;;;;0.00;0.00;;;;;;;14.36;100.00;100804.06;10376363;28;20481;-74
2022/10/23 16:24:15;;;;;;;0.00;0.00;;;;;;;14.30;100.00;100797.59;10373574;28;20017;-73
2022/10/23 16:29:15;;;;;;;0.00;0.00;;;;;;;14.25;100.00;100813.38;10378439;28;20036;-74
2022/10/23 16:34:16;;;;;;;0.03;0.03;;;;;;;14.18;100.00;100815.16;10382308;28;20778;-74
2022/10/23 16:39:18;;;;;;;0.10;0.10;;;;;;;14.17;100.00;100803.59;10414750;28;20978;-73
2022/10/23 16:44:18;;;;;;;0.00;0.00;;;;;;;14.19;100.00;100806.91;10382537;28;20096;-73
2022/10/23 16:49:18;;;;;;;0.10;0.10;;;;;;;14.26;100.00;100802.50;10381727;28;20433;-73
2022/10/23 16:54:19;;;;;;;0.10;0.10;;;;;;;14.25;100.00;100791.97;10389556;28;20018;-73
2022/10/23 16:59:19;;;;;;;0.10;0.10;;;;;;;14.26;100.00;100788.28;10395096;28;20030;-74
2022/10/23 17:04:19;;;;;;;0.10;0.10;;;;;;;14.22;100.00;100779.78;10375083;28;20018;-74
2022/10/23 17:09:20;;;;;;;0.10;0.10;;;;;;;14.18;100.00;100769.63;10382605;28;20025;-74
2022/10/23 17:14:23;;;;;;;0.10;0.10;;;;;;;14.14;100.00;100762.97;10411265;28;20043;-74
2022/10/23 17:19:25;;;;;;;0.10;0.10;;;;;;;14.06;100.00;100755.84;10397671;28;20022;-74
2022/10/23 17:24:25;;;;;;;0.10;0.10;;;;;;;14.02;100.00;100750.03;10371091;28;20033;-74
2022/10/23 17:29:26;;;;;;;0.10;0.10;;;;;;;13.98;100.00;100738.00;10382531;28;20032;-74
2022/10/23 17:34:26;;;;;;;0.10;0.10;;;;;;;13.94;100.00;100726.00;10411760;28;20025;-74
2022/10/23 17:39:28;;;;;;;0.10;0.10;;;;;;;13.87;100.00;100719.72;10394430;28;20168;-74
2022/10/23 17:44:28;;;;;;;0.10;0.10;;;;;;;13.79;100.00;100709.94;10405721;28;20343;-74
2022/10/23 17:49:28;;;;;;;0.00;0.00;;;;;;;13.73;100.00;100680.38;10412220;28;20472;-74
2022/10/23 17:54:29;;;;;;;0.10;0.10;;;;;;;13.65;100.00;100693.84;10386077;28;20122;-74
2022/10/23 17:59:29;;;;;;;0.10;0.10;;;;;;;13.56;100.00;100683.22;10410604;22;20041;-75
2022/10/23 18:04:29;;;;;;;0.10;0.10;;;;;;;13.54;100.00;100690.59;10412746;28;20022;-75
2022/10/23 18:09:30;;;;;;;0.10;0.10;;;;;;;13.52;100.00;100691.78;10412426;28;20021;-75
2022/10/23 18:14:33;;;;;;;0.20;0.20;;;;;;;13.48;100.00;100699.34;10411434;28;20028;-75
2022/10/23 18:19:33;;;;;;;0.10;0.10;;;;;;;13.55;100.00;100710.16;10412166;28;20021;-75
2022/10/23 18:24:35;;;;;;;0.10;0.10;;;;;;;13.75;100.00;100721.19;10412016;28;20021;-76
2022/10/23 18:29:36;;;;;;;0.10;0.10;;;;;;;13.89;100.00;100690.91;10412454;28;20024;-76
2022/10/23 18:34:37;;;;;;;0.10;0.10;;;;;;;14.00;100.00;100695.81;10416534;28;20079;-75
2022/10/23 18:39:37;;;;;;;0.10;0.10;;;;;;;14.05;100.00;100700.63;10422385;28;20017;-76
2022/10/23 18:44:37;;;;;;;0.10;0.10;;;;;;;14.09;100.00;100712.63;10434594;28;20402;-76
2022/10/23 18:49:38;;;;;;;0.10;0.10;;;;;;;14.12;100.00;100711.44;10452303;28;20468;-76
2022/10/23 18:54:38;;;;;;;0.10;0.10;;;;;;;14.12;100.00;100730.19;10448203;28;20494;-75
2022/10/23 18:59:38;;;;;;;0.00;0.00;;;;;;;14.11;100.00;100707.06;10410857;28;20396;-76
2022/10/23 19:04:39;;;;;;;0.10;0.10;;;;;;;14.06;100.00;100713.00;10416744;28;20069;-77
2022/10/23 19:09:39;;;;;;;0.10;0.10;;;;;;;14.00;100.00;100703.84;10425480;28;20101;-77
2022/10/23 19:14:39;;;;;;;0.00;0.00;;;;;;;13.93;100.00;100681.50;10422099;28;20159;-77
2022/10/23 19:19:44;;;;;;;0.10;0.10;;;;;;;13.88;100.00;100681.22;10423389;28;20081;-77
2022/10/23 19:24:47;;;;;;;0.10;0.10;;;;;;;13.86;100.00;100680.56;10421305;28;20036;-77
2022/10/23 19:29:50;;;;;;;0.10;0.10;;;;;;;13.85;100.00;100689.63;10417440;28;20025;-77
2022/10/23 19:34:50;;;;;;;0.10;0.10;;;;;;;13.82;100.00;100690.00;10418431;28;20507;-77
2022/10/23 19:39:51;;;;;;;0.10;0.10;;;;;;;13.83;100.00;100691.66;10418833;28;20036;-77
2022/10/23 19:44:52;;;;;;;0.10;0.10;;;;;;;13.86;100.00;100691.28;10418423;28;20021;-76
2022/10/23 19:49:53;;;;;;;0.00;0.00;;;;;;;13.89;100.00;100693.59;10419306;28;20260;-77
2022/10/23 19:54:53;;;;;;;0.10;0.10;;;;;;;14.03;100.00;100686.59;10418774;28;20025;-77
2022/10/23 19:59:53;;;;;;;0.10;0.10;;;;;;;14.12;100.00;100674.75;10418784;28;20032;-77
2022/10/23 20:04:54;;;;;;;0.10;0.10;;;;;;;14.22;100.00;100661.91;10448986;28;20520;-77
2022/10/23 20:09:54;;;;;;;0.00;0.00;;;;;;;14.32;100.00;100661.63;10456935;28;20030;-77
2022/10/23 20:14:54;;;;;;;0.10;0.10;;;;;;;14.33;100.00;100630.28;10458632;28;20032;-78
2022/10/23 20:19:55;;;;;;;0.10;0.10;;;;;;;14.32;100.00;100607.22;10459283;28;20021;-77
2022/10/23 20:24:55;;;;;;;0.10;0.10;;;;;;;14.31;100.00;100597.50;10459036;28;20262;-77
2022/10/23 20:29:56;;;;;;;0.10;0.10;;;;;;;14.27;100.00;100621.16;10459663;28;20032;-78
2022/10/23 20:34:56;;;;;;;0.10;0.10;;;;;;;14.22;100.00;100612.84;10458952;28;20017;-78
2022/10/23 20:39:56;;;;;;;0.10;0.10;;;;;;;14.19;100.00;100618.56;10458824;28;20028;-77
2022/10/23 20:44:56;;;;;;;0.10;0.10;;;;;;;14.17;100.00;100592.00;10458909;28;20028;-78
2022/10/23 20:49:57;;;;;;;0.10;0.10;;;;;;;14.14;100.00;100596.91;10459883;28;20082;-77
2022/10/23 20:54:57;;;;;;;0.10;0.10;;;;;;;14.09;100.00;100605.50;10456913;28;20032;-78
2022/10/23 20:59:58;;;;;;;0.10;0.10;;;;;;;14.11;100.00;100582.03;10459074;28;20032;-77
2022/10/23 21:04:58;;;;;;;0.05;0.05;;;;;;;14.14;100.00;100584.34;10456698;28;20024;-76
2022/10/23 21:09:58;;;;;;;0.00;0.00;;;;;;;14.08;100.00;100571.69;10455968;28;20021;-76
2022/10/23 21:14:59;;;;;;;0.10;0.10;;;;;;;14.04;100.00;100571.22;10459662;28;20024;-77
2022/10/23 21:19:59;;;;;;;0.00;0.00;;;;;;;14.06;100.00;100551.47;10458542;28;20017;-77
2022/10/23 21:25:00;;;;;;;0.10;0.10;;;;;;;14.13;100.00;100542.47;10456784;28;20351;-76
2022/10/23 21:30:00;;;;;;;0.00;0.00;;;;;;;14.23;100.00;100534.97;10456509;28;20096;-77
2022/10/23 21:35:01;;;;;;;0.10;0.10;;;;;;;14.33;100.00;100531.16;10456853;28;20092;-77
2022/10/23 21:40:01;;;;;;;0.10;0.10;;;;;;;14.31;100.00;100517.97;10454261;28;20029;-77
2022/10/23 21:45:02;;;;;;;0.00;0.00;;;;;;;14.28;100.00;100523.69;10455019;28;20047;-77
2022/10/23 21:50:03;;;;;;;0.00;0.00;;;;;;;14.23;100.00;100523.44;10454795;28;20052;-77
2022/10/23 21:55:03;;;;;;;0.00;0.00;;;;;;;14.13;100.00;100530.94;10454247;28;20032;-76
2022/10/23 22:00:05;;;;;;;0.00;0.00;;;;;;;14.09;100.00;100525.16;10453970;28;20415;-76
2022/10/23 22:05:05;;;;;;;0.10;0.10;;;;;;;14.02;100.00;100537.63;10453767;28;20092;-77
2022/10/23 22:10:06;;;;;;;0.10;0.10;;;;;;;13.96;100.00;100530.34;10452613;28;20024;-77
2022/10/23 22:15:07;;;;;;;0.10;0.10;;;;;;;13.89;100.00;100537.47;10453434;28;20521;-77
2022/10/23 22:20:07;;;;;;;0.10;0.10;;;;;;;13.77;100.00;100535.28;10453478;28;20056;-77
2022/10/23 22:25:08;;;;;;;0.10;0.10;;;;;;;13.68;100.00;100540.94;10453031;28;20034;-76
2022/10/23 22:30:08;;;;;;;0.00;0.00;;;;;;;13.61;100.00;100526.63;10452834;28;20491;-76
2022/10/23 22:35:09;;;;;;;0.00;0.00;;;;;;;13.46;100.00;100530.13;10451394;28;20025;-76
2022/10/23 22:40:10;;;;;;;0.00;0.00;;;;;;;13.38;100.00;100542.78;10452781;28;20021;-76
2022/10/23 22:45:10;;;;;;;0.10;0.10;;;;;;;13.32;100.00;100558.56;10452278;28;20384;-77
2022/10/23 22:50:10;;;;;;;0.00;0.00;;;;;;;13.31;100.00;100596.19;10453678;28;20091;-78
2022/10/23 22:55:10;;;;;;;0.10;0.10;;;;;;;13.31;100.00;100598.84;10452608;28;20391;-76
2022/10/23 23:00:11;;;;;;;0.10;0.10;;;;;;;13.33;100.00;100586.97;10451998;28;20043;-76
2022/10/23 23:05:11;;;;;;;0.10;0.10;;;;;;;13.38;100.00;100570.38;10451445;28;20023;-76